sensor_id;sensor_type;location;lat;lon;timestamp;P1;durP1;ratioP1;P2;durP2;ratioP2
7080;SDS011;3582;51.506;11.948;2022-08-24T00:02:22;9.20;;;6.27;;
7080;SDS011;3582;51.506;11.948;2022-08-24T00:04:49;8.33;;;7.40;;
7080;SDS011;3582;51.506;11.948;2022-08-24T00:07:15;7.13;;;6.37;;
7080;SDS011;3582;51.506;11.948;2022-08-24T00:09:43;7.70;;;6.93;;
7080;SDS011;3582;51.506;11.948;2022-08-24T00:12:09;8.27;;;7.23;;
7080;SDS011;3582;51.506;11.948;2022-08-24T00:14:35;7.73;;;6.93;;
7080;SDS011;3582;51.506;11.948;2022-08-24T00:17:01;9.00;;;6.87;;
7080;SDS011;3582;51.506;11.948;2022-08-24T00:19:28;7.27;;;6.47;;
7080;SDS011;3582;51.506;11.948;2022-08-24T00:21:54;7.90;;;7.10;;
7080;SDS011;3582;51.506;11.948;2022-08-24T00:24:20;8.50;;;7.70;;
7080;SDS011;3582;51.506;11.948;2022-08-24T00:26:46;8.17;;;7.33;;
7080;SDS011;3582;51.506;11.948;2022-08-24T00:29:13;8.27;;;7.50;;
7080;SDS011;3582;51.506;11.948;2022-08-24T00:31:39;7.90;;;7.20;;
7080;SDS011;3582;51.506;11.948;2022-08-24T00:34:05;7.40;;;6.50;;
7080;SDS011;3582;51.506;11.948;2022-08-24T00:36:31;8.07;;;7.17;;
7080;SDS011;3582;51.506;11.948;2022-08-24T00:38:57;7.63;;;6.83;;
7080;SDS011;3582;51.506;11.948;2022-08-24T00:41:24;8.53;;;7.73;;
7080;SDS011;3582;51.506;11.948;2022-08-24T00:43:52;8.30;;;7.00;;
7080;SDS011;3582;51.506;11.948;2022-08-24T00:48:59;6.77;;;6.10;;
7080;SDS011;3582;51.506;11.948;2022-08-24T00:51:32;7.10;;;6.40;;
7080;SDS011;3582;51.506;11.948;2022-08-24T00:54:02;11.20;;;6.07;;
7080;SDS011;3582;51.506;11.948;2022-08-24T00:56:31;6.97;;;6.27;;
7080;SDS011;3582;51.506;11.948;2022-08-24T00:59:00;9.67;;;7.17;;
7080;SDS011;3582;51.506;11.948;2022-08-24T01:01:26;8.87;;;8.00;;
7080;SDS011;3582;51.506;11.948;2022-08-24T01:03:53;8.07;;;7.30;;
7080;SDS011;3582;51.506;11.948;2022-08-24T01:06:21;6.97;;;6.20;;
7080;SDS011;3582;51.506;11.948;2022-08-24T01:08:50;7.60;;;6.70;;
7080;SDS011;3582;51.506;11.948;2022-08-24T01:11:17;7.40;;;6.70;;
7080;SDS011;3582;51.506;11.948;2022-08-24T01:13:44;7.73;;;7.03;;
7080;SDS011;3582;51.506;11.948;2022-08-24T01:16:12;9.20;;;7.10;;
7080;SDS011;3582;51.506;11.948;2022-08-24T01:18:39;7.63;;;6.70;;
7080;SDS011;3582;51.506;11.948;2022-08-24T01:21:21;7.90;;;6.73;;
7080;SDS011;3582;51.506;11.948;2022-08-24T01:26:16;7.83;;;7.20;;
7080;SDS011;3582;51.506;11.948;2022-08-24T01:28:43;7.67;;;5.93;;
7080;SDS011;3582;51.506;11.948;2022-08-24T01:31:10;9.47;;;8.43;;
7080;SDS011;3582;51.506;11.948;2022-08-24T01:33:36;10.90;;;7.23;;
7080;SDS011;3582;51.506;11.948;2022-08-24T01:36:27;6.77;;;6.07;;
7080;SDS011;3582;51.506;11.948;2022-08-24T01:38:48;7.03;;;6.13;;
7080;SDS011;3582;51.506;11.948;2022-08-24T01:41:14;6.63;;;6.13;;
7080;SDS011;3582;51.506;11.948;2022-08-24T01:43:40;10.13;;;6.30;;
7080;SDS011;3582;51.506;11.948;2022-08-24T01:46:06;7.17;;;6.47;;
7080;SDS011;3582;51.506;11.948;2022-08-24T01:48:32;6.30;;;5.70;;
7080;SDS011;3582;51.506;11.948;2022-08-24T01:50:58;6.57;;;5.77;;
7080;SDS011;3582;51.506;11.948;2022-08-24T01:53:24;7.47;;;6.67;;
7080;SDS011;3582;51.506;11.948;2022-08-24T01:55:50;15.37;;;6.73;;
7080;SDS011;3582;51.506;11.948;2022-08-24T01:58:16;6.93;;;6.33;;
7080;SDS011;3582;51.506;11.948;2022-08-24T02:00:42;6.80;;;6.10;;
7080;SDS011;3582;51.506;11.948;2022-08-24T02:03:08;9.07;;;7.63;;
7080;SDS011;3582;51.506;11.948;2022-08-24T02:05:34;9.67;;;7.97;;
7080;SDS011;3582;51.506;11.948;2022-08-24T02:08:00;8.07;;;6.57;;
7080;SDS011;3582;51.506;11.948;2022-08-24T02:10:26;9.50;;;7.60;;
7080;SDS011;3582;51.506;11.948;2022-08-24T02:12:53;13.67;;;7.30;;
7080;SDS011;3582;51.506;11.948;2022-08-24T02:15:23;8.33;;;6.87;;
7080;SDS011;3582;51.506;11.948;2022-08-24T02:17:51;7.97;;;7.17;;
7080;SDS011;3582;51.506;11.948;2022-08-24T02:20:17;9.80;;;7.77;;
7080;SDS011;3582;51.506;11.948;2022-08-24T02:22:45;7.90;;;7.20;;
7080;SDS011;3582;51.506;11.948;2022-08-24T02:25:11;9.37;;;8.57;;
7080;SDS011;3582;51.506;11.948;2022-08-24T02:27:37;8.07;;;7.37;;
7080;SDS011;3582;51.506;11.948;2022-08-24T02:30:03;8.47;;;7.67;;
7080;SDS011;3582;51.506;11.948;2022-08-24T02:32:29;8.83;;;8.10;;
7080;SDS011;3582;51.506;11.948;2022-08-24T02:34:55;9.97;;;8.37;;
7080;SDS011;3582;51.506;11.948;2022-08-24T02:37:21;9.53;;;8.53;;
7080;SDS011;3582;51.506;11.948;2022-08-24T02:39:47;9.37;;;8.47;;
7080;SDS011;3582;51.506;11.948;2022-08-24T02:42:13;8.37;;;7.67;;
7080;SDS011;3582;51.506;11.948;2022-08-24T02:44:39;8.77;;;7.33;;
7080;SDS011;3582;51.506;11.948;2022-08-24T02:47:05;7.60;;;7.07;;
7080;SDS011;3582;51.506;11.948;2022-08-24T02:49:31;9.30;;;7.80;;
7080;SDS011;3582;51.506;11.948;2022-08-24T02:51:57;10.80;;;8.17;;
7080;SDS011;3582;51.506;11.948;2022-08-24T02:54:23;8.60;;;7.70;;
7080;SDS011;3582;51.506;11.948;2022-08-24T02:56:50;8.87;;;8.00;;
7080;SDS011;3582;51.506;11.948;2022-08-24T02:59:16;9.37;;;8.53;;
7080;SDS011;3582;51.506;11.948;2022-08-24T03:01:42;10.80;;;8.83;;
7080;SDS011;3582;51.506;11.948;2022-08-24T03:04:08;8.43;;;7.63;;
7080;SDS011;3582;51.506;11.948;2022-08-24T03:06:34;11.30;;;8.50;;
7080;SDS011;3582;51.506;11.948;2022-08-24T03:09:01;9.63;;;8.70;;
7080;SDS011;3582;51.506;11.948;2022-08-24T03:11:27;9.93;;;8.00;;
7080;SDS011;3582;51.506;11.948;2022-08-24T03:13:53;12.10;;;8.57;;
7080;SDS011;3582;51.506;11.948;2022-08-24T03:16:19;9.53;;;8.27;;
7080;SDS011;3582;51.506;11.948;2022-08-24T03:18:45;13.27;;;10.20;;
7080;SDS011;3582;51.506;11.948;2022-08-24T03:21:11;8.77;;;8.07;;
7080;SDS011;3582;51.506;11.948;2022-08-24T03:23:37;11.97;;;7.63;;
7080;SDS011;3582;51.506;11.948;2022-08-24T03:26:03;8.67;;;7.87;;
7080;SDS011;3582;51.506;11.948;2022-08-24T03:28:30;11.93;;;8.67;;
7080;SDS011;3582;51.506;11.948;2022-08-24T03:30:55;10.20;;;8.60;;
7080;SDS011;3582;51.506;11.948;2022-08-24T03:33:22;8.70;;;7.80;;
7080;SDS011;3582;51.506;11.948;2022-08-24T03:35:48;10.97;;;9.40;;
7080;SDS011;3582;51.506;11.948;2022-08-24T03:38:13;14.10;;;10.47;;
7080;SDS011;3582;51.506;11.948;2022-08-24T03:40:40;9.50;;;8.70;;
7080;SDS011;3582;51.506;11.948;2022-08-24T03:43:06;10.67;;;9.77;;
7080;SDS011;3582;51.506;11.948;2022-08-24T03:45:33;12.33;;;9.07;;
7080;SDS011;3582;51.506;11.948;2022-08-24T03:47:59;12.57;;;8.83;;
7080;SDS011;3582;51.506;11.948;2022-08-24T03:50:25;9.00;;;8.10;;
7080;SDS011;3582;51.506;11.948;2022-08-24T03:52:52;11.27;;;8.90;;
7080;SDS011;3582;51.506;11.948;2022-08-24T03:55:18;9.23;;;8.30;;
7080;SDS011;3582;51.506;11.948;2022-08-24T03:57:44;13.30;;;8.90;;
7080;SDS011;3582;51.506;11.948;2022-08-24T04:00:10;8.17;;;7.40;;
7080;SDS011;3582;51.506;11.948;2022-08-24T04:02:37;9.80;;;8.30;;
7080;SDS011;3582;51.506;11.948;2022-08-24T04:05:04;8.77;;;8.07;;
7080;SDS011;3582;51.506;11.948;2022-08-24T04:07:31;10.83;;;9.30;;
7080;SDS011;3582;51.506;11.948;2022-08-24T04:09:57;9.43;;;8.43;;
7080;SDS011;3582;51.506;11.948;2022-08-24T04:12:22;10.10;;;9.20;;
7080;SDS011;3582;51.506;11.948;2022-08-24T04:14:51;18.43;;;11.27;;
7080;SDS011;3582;51.506;11.948;2022-08-24T04:17:19;11.07;;;10.07;;
7080;SDS011;3582;51.506;11.948;2022-08-24T04:19:45;11.13;;;10.03;;
7080;SDS011;3582;51.506;11.948;2022-08-24T04:22:27;12.47;;;9.73;;
7080;SDS011;3582;51.506;11.948;2022-08-24T04:24:54;13.50;;;9.80;;
7080;SDS011;3582;51.506;11.948;2022-08-24T04:27:20;12.57;;;10.33;;
7080;SDS011;3582;51.506;11.948;2022-08-24T04:29:46;11.40;;;10.30;;
7080;SDS011;3582;51.506;11.948;2022-08-24T04:32:12;13.70;;;9.83;;
7080;SDS011;3582;51.506;11.948;2022-08-24T04:34:41;9.67;;;8.67;;
7080;SDS011;3582;51.506;11.948;2022-08-24T04:37:07;12.67;;;10.10;;
7080;SDS011;3582;51.506;11.948;2022-08-24T04:39:33;12.17;;;8.90;;
7080;SDS011;3582;51.506;11.948;2022-08-24T04:41:59;10.47;;;9.53;;
7080;SDS011;3582;51.506;11.948;2022-08-24T04:44:25;11.10;;;9.17;;
7080;SDS011;3582;51.506;11.948;2022-08-24T04:46:52;12.13;;;9.20;;
7080;SDS011;3582;51.506;11.948;2022-08-24T04:49:18;11.03;;;10.13;;
7080;SDS011;3582;51.506;11.948;2022-08-24T04:51:44;13.87;;;9.00;;
7080;SDS011;3582;51.506;11.948;2022-08-24T04:54:10;10.97;;;9.97;;
7080;SDS011;3582;51.506;11.948;2022-08-24T04:56:36;14.43;;;8.67;;
7080;SDS011;3582;51.506;11.948;2022-08-24T04:59:02;9.73;;;8.40;;
7080;SDS011;3582;51.506;11.948;2022-08-24T05:01:29;10.80;;;9.80;;
7080;SDS011;3582;51.506;11.948;2022-08-24T05:03:56;11.03;;;9.20;;
7080;SDS011;3582;51.506;11.948;2022-08-24T05:06:26;14.13;;;11.23;;
7080;SDS011;3582;51.506;11.948;2022-08-24T05:08:52;10.93;;;9.83;;
7080;SDS011;3582;51.506;11.948;2022-08-24T05:11:19;10.37;;;9.43;;
7080;SDS011;3582;51.506;11.948;2022-08-24T05:13:46;13.23;;;12.03;;
7080;SDS011;3582;51.506;11.948;2022-08-24T05:16:14;12.40;;;10.10;;
7080;SDS011;3582;51.506;11.948;2022-08-24T05:18:40;10.50;;;9.50;;
7080;SDS011;3582;51.506;11.948;2022-08-24T05:21:07;11.27;;;10.10;;
7080;SDS011;3582;51.506;11.948;2022-08-24T05:23:34;13.60;;;11.73;;
7080;SDS011;3582;51.506;11.948;2022-08-24T05:26:07;11.87;;;10.67;;
7080;SDS011;3582;51.506;11.948;2022-08-24T05:28:34;10.33;;;9.40;;
7080;SDS011;3582;51.506;11.948;2022-08-24T05:31:13;12.60;;;11.30;;
7080;SDS011;3582;51.506;11.948;2022-08-24T05:33:40;9.60;;;8.70;;
7080;SDS011;3582;51.506;11.948;2022-08-24T05:36:12;11.10;;;9.30;;
7080;SDS011;3582;51.506;11.948;2022-08-24T05:38:39;8.77;;;7.97;;
7080;SDS011;3582;51.506;11.948;2022-08-24T05:41:04;16.13;;;9.07;;
7080;SDS011;3582;51.506;11.948;2022-08-24T05:43:30;8.83;;;8.10;;
7080;SDS011;3582;51.506;11.948;2022-08-24T05:45:56;9.20;;;8.40;;
7080;SDS011;3582;51.506;11.948;2022-08-24T05:48:22;11.70;;;7.73;;
7080;SDS011;3582;51.506;11.948;2022-08-24T05:50:52;11.30;;;10.10;;
7080;SDS011;3582;51.506;11.948;2022-08-24T05:53:18;9.30;;;8.40;;
7080;SDS011;3582;51.506;11.948;2022-08-24T05:55:44;8.20;;;7.50;;
7080;SDS011;3582;51.506;11.948;2022-08-24T05:58:11;9.50;;;8.50;;
7080;SDS011;3582;51.506;11.948;2022-08-24T06:00:37;10.53;;;9.03;;
7080;SDS011;3582;51.506;11.948;2022-08-24T06:03:02;10.17;;;9.00;;
7080;SDS011;3582;51.506;11.948;2022-08-24T06:05:28;11.30;;;10.27;;
7080;SDS011;3582;51.506;11.948;2022-08-24T06:07:54;9.90;;;8.37;;
7080;SDS011;3582;51.506;11.948;2022-08-24T06:10:20;16.30;;;9.67;;
7080;SDS011;3582;51.506;11.948;2022-08-24T06:12:46;11.37;;;9.27;;
7080;SDS011;3582;51.506;11.948;2022-08-24T06:15:12;9.50;;;8.70;;
7080;SDS011;3582;51.506;11.948;2022-08-24T06:17:39;14.10;;;9.53;;
7080;SDS011;3582;51.506;11.948;2022-08-24T06:20:05;10.13;;;9.23;;
7080;SDS011;3582;51.506;11.948;2022-08-24T06:22:31;13.10;;;9.87;;
7080;SDS011;3582;51.506;11.948;2022-08-24T06:24:57;19.00;;;10.23;;
7080;SDS011;3582;51.506;11.948;2022-08-24T06:27:42;12.37;;;11.07;;
7080;SDS011;3582;51.506;11.948;2022-08-24T06:30:09;17.97;;;12.23;;
7080;SDS011;3582;51.506;11.948;2022-08-24T06:32:36;12.27;;;11.07;;
7080;SDS011;3582;51.506;11.948;2022-08-24T06:35:02;15.40;;;11.60;;
7080;SDS011;3582;51.506;11.948;2022-08-24T06:37:28;18.93;;;12.10;;
7080;SDS011;3582;51.506;11.948;2022-08-24T06:39:55;12.33;;;11.20;;
7080;SDS011;3582;51.506;11.948;2022-08-24T06:42:22;12.53;;;11.43;;
7080;SDS011;3582;51.506;11.948;2022-08-24T06:44:53;15.77;;;11.90;;
7080;SDS011;3582;51.506;11.948;2022-08-24T06:47:19;13.90;;;12.60;;
7080;SDS011;3582;51.506;11.948;2022-08-24T06:49:45;17.73;;;13.60;;
7080;SDS011;3582;51.506;11.948;2022-08-24T06:52:11;14.63;;;13.17;;
7080;SDS011;3582;51.506;11.948;2022-08-24T06:54:37;13.13;;;11.80;;
7080;SDS011;3582;51.506;11.948;2022-08-24T06:57:04;14.30;;;12.90;;
7080;SDS011;3582;51.506;11.948;2022-08-24T06:59:30;13.07;;;11.67;;
7080;SDS011;3582;51.506;11.948;2022-08-24T07:01:56;19.83;;;12.97;;
7080;SDS011;3582;51.506;11.948;2022-08-24T07:04:22;13.63;;;12.33;;
7080;SDS011;3582;51.506;11.948;2022-08-24T07:06:49;13.37;;;11.57;;
7080;SDS011;3582;51.506;11.948;2022-08-24T07:09:15;14.90;;;13.40;;
7080;SDS011;3582;51.506;11.948;2022-08-24T07:11:41;15.90;;;14.33;;
7080;SDS011;3582;51.506;11.948;2022-08-24T07:14:07;17.17;;;13.53;;
7080;SDS011;3582;51.506;11.948;2022-08-24T07:16:33;17.83;;;13.60;;
7080;SDS011;3582;51.506;11.948;2022-08-24T07:19:00;16.43;;;14.93;;
7080;SDS011;3582;51.506;11.948;2022-08-24T07:21:26;13.23;;;11.10;;
7080;SDS011;3582;51.506;11.948;2022-08-24T07:23:53;14.37;;;11.10;;
7080;SDS011;3582;51.506;11.948;2022-08-24T07:26:20;19.43;;;17.50;;
7080;SDS011;3582;51.506;11.948;2022-08-24T07:28:47;17.60;;;12.10;;
7080;SDS011;3582;51.506;11.948;2022-08-24T07:31:14;15.80;;;12.73;;
7080;SDS011;3582;51.506;11.948;2022-08-24T07:33:40;13.87;;;12.57;;
7080;SDS011;3582;51.506;11.948;2022-08-24T07:36:06;14.60;;;13.20;;
7080;SDS011;3582;51.506;11.948;2022-08-24T07:38:32;17.97;;;12.03;;
7080;SDS011;3582;51.506;11.948;2022-08-24T07:40:58;13.43;;;12.03;;
7080;SDS011;3582;51.506;11.948;2022-08-24T07:43:24;13.33;;;12.03;;
7080;SDS011;3582;51.506;11.948;2022-08-24T07:45:50;13.93;;;11.07;;
7080;SDS011;3582;51.506;11.948;2022-08-24T07:48:17;14.87;;;11.17;;
7080;SDS011;3582;51.506;11.948;2022-08-24T07:50:43;11.40;;;10.20;;
7080;SDS011;3582;51.506;11.948;2022-08-24T07:53:09;11.77;;;10.50;;
7080;SDS011;3582;51.506;11.948;2022-08-24T07:55:35;11.90;;;10.63;;
7080;SDS011;3582;51.506;11.948;2022-08-24T07:58:01;11.10;;;10.00;;
7080;SDS011;3582;51.506;11.948;2022-08-24T08:00:27;11.03;;;9.90;;
7080;SDS011;3582;51.506;11.948;2022-08-24T08:02:53;13.03;;;9.80;;
7080;SDS011;3582;51.506;11.948;2022-08-24T08:05:21;9.50;;;8.60;;
7080;SDS011;3582;51.506;11.948;2022-08-24T08:07:47;11.67;;;10.50;;
7080;SDS011;3582;51.506;11.948;2022-08-24T08:10:13;9.63;;;8.73;;
7080;SDS011;3582;51.506;11.948;2022-08-24T08:12:40;10.30;;;9.17;;
7080;SDS011;3582;51.506;11.948;2022-08-24T08:15:06;12.00;;;8.40;;
7080;SDS011;3582;51.506;11.948;2022-08-24T08:17:33;10.07;;;9.00;;
7080;SDS011;3582;51.506;11.948;2022-08-24T08:19:59;15.07;;;9.10;;
7080;SDS011;3582;51.506;11.948;2022-08-24T08:22:25;9.13;;;8.03;;
7080;SDS011;3582;51.506;11.948;2022-08-24T08:25:10;11.00;;;9.90;;
7080;SDS011;3582;51.506;11.948;2022-08-24T08:27:36;9.50;;;8.60;;
7080;SDS011;3582;51.506;11.948;2022-08-24T08:30:05;11.50;;;7.30;;
7080;SDS011;3582;51.506;11.948;2022-08-24T08:32:31;8.37;;;7.63;;
7080;SDS011;3582;51.506;11.948;2022-08-24T08:34:58;7.67;;;7.00;;
7080;SDS011;3582;51.506;11.948;2022-08-24T08:37:24;15.00;;;9.03;;
7080;SDS011;3582;51.506;11.948;2022-08-24T08:39:50;8.90;;;8.10;;
7080;SDS011;3582;51.506;11.948;2022-08-24T08:58:01;6.93;;;5.80;;
7080;SDS011;3582;51.506;11.948;2022-08-24T09:00:43;6.00;;;5.50;;
7080;SDS011;3582;51.506;11.948;2022-08-24T09:03:14;7.37;;;6.60;;
7080;SDS011;3582;51.506;11.948;2022-08-24T09:11:18;7.33;;;6.57;;
7080;SDS011;3582;51.506;11.948;2022-08-24T09:22:06;7.90;;;4.90;;
7080;SDS011;3582;51.506;11.948;2022-08-24T09:27:19;6.63;;;5.87;;
7080;SDS011;3582;51.506;11.948;2022-08-24T09:32:34;6.70;;;5.00;;
7080;SDS011;3582;51.506;11.948;2022-08-24T09:35:03;5.60;;;5.20;;
7080;SDS011;3582;51.506;11.948;2022-08-24T09:37:52;7.67;;;5.40;;
7080;SDS011;3582;51.506;11.948;2022-08-24T09:40:34;5.43;;;5.07;;
7080;SDS011;3582;51.506;11.948;2022-08-24T09:45:57;6.83;;;4.83;;
7080;SDS011;3582;51.506;11.948;2022-08-24T09:48:34;5.60;;;5.10;;
7080;SDS011;3582;51.506;11.948;2022-08-24T09:51:22;5.97;;;4.20;;
7080;SDS011;3582;51.506;11.948;2022-08-24T09:59:20;5.70;;;4.03;;
7080;SDS011;3582;51.506;11.948;2022-08-24T10:04:36;7.77;;;4.43;;
7080;SDS011;3582;51.506;11.948;2022-08-24T10:10:02;7.53;;;3.93;;
7080;SDS011;3582;51.506;11.948;2022-08-24T10:12:52;7.13;;;3.70;;
7080;SDS011;3582;51.506;11.948;2022-08-24T10:15:26;3.63;;;3.33;;
7080;SDS011;3582;51.506;11.948;2022-08-24T10:18:03;5.73;;;4.53;;
7080;SDS011;3582;51.506;11.948;2022-08-24T10:23:30;7.23;;;3.67;;
7080;SDS011;3582;51.506;11.948;2022-08-24T10:34:25;4.97;;;4.47;;
7080;SDS011;3582;51.506;11.948;2022-08-24T10:39:37;10.03;;;3.70;;
7080;SDS011;3582;51.506;11.948;2022-08-24T10:50:45;3.70;;;3.40;;
7080;SDS011;3582;51.506;11.948;2022-08-24T10:53:19;6.27;;;3.37;;
7080;SDS011;3582;51.506;11.948;2022-08-24T10:55:50;5.60;;;3.60;;
7080;SDS011;3582;51.506;11.948;2022-08-24T10:58:31;4.23;;;3.83;;
7080;SDS011;3582;51.506;11.948;2022-08-24T11:03:50;6.07;;;3.97;;
7080;SDS011;3582;51.506;11.948;2022-08-24T11:06:17;10.30;;;4.50;;
7080;SDS011;3582;51.506;11.948;2022-08-24T11:08:50;6.90;;;4.07;;
7080;SDS011;3582;51.506;11.948;2022-08-24T11:11:28;6.57;;;3.60;;
7080;SDS011;3582;51.506;11.948;2022-08-24T11:14:36;5.97;;;3.20;;
7080;SDS011;3582;51.506;11.948;2022-08-24T11:16:44;3.33;;;3.10;;
7080;SDS011;3582;51.506;11.948;2022-08-24T11:19:11;5.90;;;3.07;;
7080;SDS011;3582;51.506;11.948;2022-08-24T11:21:45;5.17;;;3.57;;
7080;SDS011;3582;51.506;11.948;2022-08-24T11:29:16;3.67;;;3.20;;
7080;SDS011;3582;51.506;11.948;2022-08-24T11:31:43;15.70;;;3.83;;
7080;SDS011;3582;51.506;11.948;2022-08-24T11:34:14;5.00;;;3.60;;
7080;SDS011;3582;51.506;11.948;2022-08-24T11:36:41;5.97;;;2.90;;
7080;SDS011;3582;51.506;11.948;2022-08-24T11:41:39;7.33;;;4.10;;
7080;SDS011;3582;51.506;11.948;2022-08-24T11:44:14;7.53;;;3.00;;
7080;SDS011;3582;51.506;11.948;2022-08-24T11:46:43;5.53;;;3.33;;
7080;SDS011;3582;51.506;11.948;2022-08-24T11:49:25;5.00;;;3.90;;
7080;SDS011;3582;51.506;11.948;2022-08-24T11:52:01;4.60;;;4.17;;
7080;SDS011;3582;51.506;11.948;2022-08-24T11:57:39;3.10;;;2.80;;
7080;SDS011;3582;51.506;11.948;2022-08-24T11:59:48;7.67;;;4.30;;
7080;SDS011;3582;51.506;11.948;2022-08-24T12:02:22;4.20;;;3.33;;
7080;SDS011;3582;51.506;11.948;2022-08-24T12:05:00;4.53;;;3.23;;
7080;SDS011;3582;51.506;11.948;2022-08-24T12:07:40;7.33;;;4.23;;
7080;SDS011;3582;51.506;11.948;2022-08-24T12:10:29;4.50;;;4.10;;
7080;SDS011;3582;51.506;11.948;2022-08-24T12:13:00;4.90;;;3.40;;
7080;SDS011;3582;51.506;11.948;2022-08-24T12:15:34;4.33;;;2.87;;
7080;SDS011;3582;51.506;11.948;2022-08-24T12:18:10;5.73;;;3.20;;
7080;SDS011;3582;51.506;11.948;2022-08-24T12:20:42;5.20;;;3.43;;
7080;SDS011;3582;51.506;11.948;2022-08-24T12:23:13;5.07;;;3.20;;
7080;SDS011;3582;51.506;11.948;2022-08-24T12:25:41;12.43;;;3.27;;
7080;SDS011;3582;51.506;11.948;2022-08-24T12:30:58;6.67;;;3.63;;
7080;SDS011;3582;51.506;11.948;2022-08-24T12:33:28;3.40;;;3.10;;
7080;SDS011;3582;51.506;11.948;2022-08-24T12:35:57;5.43;;;3.37;;
7080;SDS011;3582;51.506;11.948;2022-08-24T12:38:26;3.70;;;3.27;;
7080;SDS011;3582;51.506;11.948;2022-08-24T12:41:04;3.17;;;2.97;;
7080;SDS011;3582;51.506;11.948;2022-08-24T12:43:37;3.53;;;2.83;;
7080;SDS011;3582;51.506;11.948;2022-08-24T12:46:04;3.13;;;2.80;;
7080;SDS011;3582;51.506;11.948;2022-08-24T12:48:35;4.43;;;3.47;;
7080;SDS011;3582;51.506;11.948;2022-08-24T12:53:56;8.30;;;3.70;;
7080;SDS011;3582;51.506;11.948;2022-08-24T12:59:16;3.77;;;3.50;;
7080;SDS011;3582;51.506;11.948;2022-08-24T13:01:44;6.60;;;3.40;;
7080;SDS011;3582;51.506;11.948;2022-08-24T13:04:12;3.37;;;3.07;;
7080;SDS011;3582;51.506;11.948;2022-08-24T13:06:50;7.60;;;3.07;;
7080;SDS011;3582;51.506;11.948;2022-08-24T13:11:55;3.50;;;3.00;;
7080;SDS011;3582;51.506;11.948;2022-08-24T13:14:24;5.73;;;3.60;;
7080;SDS011;3582;51.506;11.948;2022-08-24T13:21:56;8.93;;;3.40;;
7080;SDS011;3582;51.506;11.948;2022-08-24T13:26:55;4.20;;;3.00;;
7080;SDS011;3582;51.506;11.948;2022-08-24T13:29:23;4.93;;;3.00;;
7080;SDS011;3582;51.506;11.948;2022-08-24T13:31:52;4.10;;;3.57;;
7080;SDS011;3582;51.506;11.948;2022-08-24T13:50:11;3.83;;;3.47;;
7080;SDS011;3582;51.506;11.948;2022-08-24T13:52:43;8.90;;;4.00;;
7080;SDS011;3582;51.506;11.948;2022-08-24T13:55:34;3.83;;;3.47;;
7080;SDS011;3582;51.506;11.948;2022-08-24T14:08:41;8.93;;;3.10;;
7080;SDS011;3582;51.506;11.948;2022-08-24T14:19:18;3.27;;;3.03;;
7080;SDS011;3582;51.506;11.948;2022-08-24T14:22:00;2.63;;;2.53;;
7080;SDS011;3582;51.506;11.948;2022-08-24T14:27:48;3.90;;;3.23;;
7080;SDS011;3582;51.506;11.948;2022-08-24T14:32:45;3.77;;;3.47;;
7080;SDS011;3582;51.506;11.948;2022-08-24T14:35:21;3.93;;;3.50;;
7080;SDS011;3582;51.506;11.948;2022-08-24T14:40:22;3.37;;;3.17;;
7080;SDS011;3582;51.506;11.948;2022-08-24T14:50:27;5.17;;;4.13;;
7080;SDS011;3582;51.506;11.948;2022-08-24T14:55:30;3.83;;;3.53;;
7080;SDS011;3582;51.506;11.948;2022-08-24T14:58:20;4.17;;;3.77;;
7080;SDS011;3582;51.506;11.948;2022-08-24T15:03:49;5.00;;;3.23;;
7080;SDS011;3582;51.506;11.948;2022-08-24T15:06:23;4.53;;;3.63;;
7080;SDS011;3582;51.506;11.948;2022-08-24T15:08:50;4.93;;;4.43;;
7080;SDS011;3582;51.506;11.948;2022-08-24T15:11:17;4.50;;;4.20;;
7080;SDS011;3582;51.506;11.948;2022-08-24T15:13:46;4.30;;;3.90;;
7080;SDS011;3582;51.506;11.948;2022-08-24T15:16:43;3.40;;;3.20;;
7080;SDS011;3582;51.506;11.948;2022-08-24T15:19:12;12.23;;;4.10;;
7080;SDS011;3582;51.506;11.948;2022-08-24T15:21:46;4.00;;;3.77;;
7080;SDS011;3582;51.506;11.948;2022-08-24T15:27:23;4.30;;;4.00;;
7080;SDS011;3582;51.506;11.948;2022-08-24T15:29:46;7.70;;;4.00;;
7080;SDS011;3582;51.506;11.948;2022-08-24T15:32:13;4.13;;;3.73;;
7080;SDS011;3582;51.506;11.948;2022-08-24T15:34:41;7.60;;;3.63;;
7080;SDS011;3582;51.506;11.948;2022-08-24T15:37:09;6.13;;;3.60;;
7080;SDS011;3582;51.506;11.948;2022-08-24T15:39:35;4.23;;;3.93;;
7080;SDS011;3582;51.506;11.948;2022-08-24T15:42:13;6.00;;;4.20;;
7080;SDS011;3582;51.506;11.948;2022-08-24T15:44:40;4.13;;;3.73;;
7080;SDS011;3582;51.506;11.948;2022-08-24T15:47:24;3.60;;;3.30;;
7080;SDS011;3582;51.506;11.948;2022-08-24T15:49:53;7.10;;;3.43;;
7080;SDS011;3582;51.506;11.948;2022-08-24T15:55:04;4.43;;;4.10;;
7080;SDS011;3582;51.506;11.948;2022-08-24T15:57:35;4.17;;;3.77;;
7080;SDS011;3582;51.506;11.948;2022-08-24T16:00:11;10.23;;;4.10;;
7080;SDS011;3582;51.506;11.948;2022-08-24T16:02:37;5.77;;;4.03;;
7080;SDS011;3582;51.506;11.948;2022-08-24T16:05:15;5.07;;;4.57;;
7080;SDS011;3582;51.506;11.948;2022-08-24T16:10:28;8.60;;;8.00;;
7080;SDS011;3582;51.506;11.948;2022-08-24T16:16:04;8.90;;;4.93;;
7080;SDS011;3582;51.506;11.948;2022-08-24T16:21:18;4.57;;;4.30;;
7080;SDS011;3582;51.506;11.948;2022-08-24T16:23:45;5.90;;;4.20;;
7080;SDS011;3582;51.506;11.948;2022-08-24T16:26:25;4.67;;;4.33;;
7080;SDS011;3582;51.506;11.948;2022-08-24T16:28:52;4.97;;;4.13;;
7080;SDS011;3582;51.506;11.948;2022-08-24T16:36:47;4.00;;;3.70;;
7080;SDS011;3582;51.506;11.948;2022-08-24T16:39:13;6.50;;;4.37;;
7080;SDS011;3582;51.506;11.948;2022-08-24T16:41:40;7.73;;;4.40;;
7080;SDS011;3582;51.506;11.948;2022-08-24T16:44:06;4.00;;;3.70;;
7080;SDS011;3582;51.506;11.948;2022-08-24T16:46:34;6.57;;;4.43;;
7080;SDS011;3582;51.506;11.948;2022-08-24T16:49:00;4.27;;;3.97;;
7080;SDS011;3582;51.506;11.948;2022-08-24T16:51:26;4.10;;;3.80;;
7080;SDS011;3582;51.506;11.948;2022-08-24T16:53:52;5.30;;;3.83;;
7080;SDS011;3582;51.506;11.948;2022-08-24T16:56:18;10.70;;;4.70;;
7080;SDS011;3582;51.506;11.948;2022-08-24T16:58:48;5.10;;;3.80;;
7080;SDS011;3582;51.506;11.948;2022-08-24T17:01:14;6.23;;;4.60;;
7080;SDS011;3582;51.506;11.948;2022-08-24T17:03:40;4.23;;;4.03;;
7080;SDS011;3582;51.506;11.948;2022-08-24T17:06:06;4.43;;;4.03;;
7080;SDS011;3582;51.506;11.948;2022-08-24T17:08:36;8.83;;;4.40;;
7080;SDS011;3582;51.506;11.948;2022-08-24T17:11:02;5.90;;;5.40;;
7080;SDS011;3582;51.506;11.948;2022-08-24T17:13:28;4.90;;;4.50;;
7080;SDS011;3582;51.506;11.948;2022-08-24T17:15:54;8.83;;;4.40;;
7080;SDS011;3582;51.506;11.948;2022-08-24T17:18:21;4.10;;;3.80;;
7080;SDS011;3582;51.506;11.948;2022-08-24T17:20:48;6.77;;;4.70;;
7080;SDS011;3582;51.506;11.948;2022-08-24T17:23:14;5.73;;;4.60;;
7080;SDS011;3582;51.506;11.948;2022-08-24T17:25:41;4.90;;;4.47;;
7080;SDS011;3582;51.506;11.948;2022-08-24T17:28:08;8.43;;;4.53;;
7080;SDS011;3582;51.506;11.948;2022-08-24T17:30:34;4.60;;;4.27;;
7080;SDS011;3582;51.506;11.948;2022-08-24T17:33:00;4.67;;;4.37;;
7080;SDS011;3582;51.506;11.948;2022-08-24T17:35:27;10.83;;;4.40;;
7080;SDS011;3582;51.506;11.948;2022-08-24T17:37:53;8.50;;;4.33;;
7080;SDS011;3582;51.506;11.948;2022-08-24T17:40:20;5.37;;;4.40;;
7080;SDS011;3582;51.506;11.948;2022-08-24T17:42:46;4.90;;;4.50;;
7080;SDS011;3582;51.506;11.948;2022-08-24T17:45:12;4.23;;;3.93;;
7080;SDS011;3582;51.506;11.948;2022-08-24T17:47:38;6.77;;;5.13;;
7080;SDS011;3582;51.506;11.948;2022-08-24T17:50:05;5.03;;;4.53;;
7080;SDS011;3582;51.506;11.948;2022-08-24T17:52:34;6.60;;;4.97;;
7080;SDS011;3582;51.506;11.948;2022-08-24T17:55:00;5.50;;;4.33;;
7080;SDS011;3582;51.506;11.948;2022-08-24T17:57:26;4.90;;;4.50;;
7080;SDS011;3582;51.506;11.948;2022-08-24T17:59:52;5.07;;;4.53;;
7080;SDS011;3582;51.506;11.948;2022-08-24T18:02:18;6.07;;;4.30;;
7080;SDS011;3582;51.506;11.948;2022-08-24T18:04:44;5.90;;;5.40;;
7080;SDS011;3582;51.506;11.948;2022-08-24T18:07:11;6.77;;;5.30;;
7080;SDS011;3582;51.506;11.948;2022-08-24T18:09:39;5.03;;;4.63;;